createdAt,value
2022-12-27T00:01:31.739Z,102291.25
2022-12-27T00:04:00.085Z,102294.66
2022-12-27T00:06:27.638Z,102293.78
2022-12-27T00:08:55.095Z,102292.94
2022-12-27T00:11:25.463Z,102295.44
2022-12-27T00:13:52.423Z,102294.53
2022-12-27T00:16:20.820Z,102293.63
2022-12-27T00:18:49.266Z,102288.47
2022-12-27T00:21:17.249Z,102287.63
2022-12-27T00:23:47.709Z,102294.38
2022-12-27T00:26:17.630Z,102291.94
2022-12-27T00:28:44.831Z,102300.34
2022-12-27T00:31:15.014Z,102293.72
2022-12-27T00:33:43.213Z,102297.09
2022-12-27T00:36:12.938Z,102297.09
2022-12-27T00:38:41.787Z,102298.78
2022-12-27T00:41:08.397Z,102298.75
2022-12-27T00:43:35.318Z,102296.25
2022-12-27T00:46:02.489Z,102297.09
2022-12-27T00:48:29.571Z,102304.69
2022-12-27T00:51:01.607Z,102306.41
2022-12-27T00:53:29.765Z,102309.84
2022-12-27T00:55:56.619Z,102304.84
2022-12-27T00:58:23.454Z,102311.59
2022-12-27T01:00:50.760Z,102320.03
2022-12-27T01:03:17.985Z,102309.91
2022-12-27T01:05:44.837Z,102317.53
2022-12-27T01:08:11.759Z,102329.50
2022-12-27T01:10:40.678Z,102332.16
2022-12-27T01:13:07.550Z,102339.84
2022-12-27T01:15:36.893Z,102336.59
2022-12-27T01:18:06.449Z,102355.28
2022-12-27T01:20:32.898Z,102359.66
2022-12-27T01:22:59.654Z,102345.53
2022-12-27T01:25:26.222Z,102347.38
2022-12-27T01:27:52.714Z,102334.69
2022-12-27T01:30:19.127Z,102354.06
2022-12-27T01:32:45.611Z,102360.72
2022-12-27T01:35:12.074Z,102370.75
2022-12-27T01:37:38.526Z,102373.25
2022-12-27T01:40:05.656Z,102372.38
2022-12-27T01:42:50.653Z,102384.22
2022-12-27T01:45:21.798Z,102385.91
2022-12-27T01:47:52.951Z,102399.44
2022-12-27T01:50:22.328Z,102396.97
2022-12-27T01:52:52.705Z,102405.47
2022-12-27T01:55:28.986Z,102392.06
2022-12-27T01:58:06.350Z,102387.06
2022-12-27T02:00:32.733Z,102382.88
2022-12-27T02:03:01.695Z,102390.53
2022-12-27T02:05:28.808Z,102392.38
2022-12-27T02:08:13.723Z,102395.84
2022-12-27T02:10:41.168Z,102387.44
2022-12-27T02:13:07.776Z,102399.22
2022-12-27T02:15:34.893Z,102394.09
2022-12-27T02:18:01.952Z,102392.41
2022-12-27T02:20:35.172Z,102395.75
2022-12-27T02:23:46.719Z,102394.91
2022-12-27T02:26:33.917Z,102403.28
2022-12-27T02:29:13.483Z,102396.50
2022-12-27T02:32:27.467Z,102395.63
2022-12-27T02:35:14.864Z,102403.19
2022-12-27T02:38:07.413Z,102419.31
2022-12-27T02:40:54.118Z,102426.94
2022-12-27T02:43:39.139Z,102431.19
2022-12-27T02:46:49.127Z,102427.78
2022-12-27T02:49:51.019Z,102427.84
2022-12-27T02:52:52.000Z,102426.19
2022-12-27T02:55:24.487Z,102433.81
2022-12-27T02:58:09.271Z,102441.44
2022-12-27T03:01:23.260Z,102440.59
2022-12-27T03:04:05.038Z,102435.44
2022-12-27T03:06:53.024Z,102434.53
2022-12-27T03:10:07.967Z,102426.03
2022-12-27T03:13:11.919Z,102437.81
2022-12-27T03:16:04.657Z,102427.59
2022-12-27T03:18:43.091Z,102427.56
2022-12-27T03:21:45.382Z,102430.03
2022-12-27T03:24:36.844Z,102413.03
2022-12-27T03:27:09.473Z,102427.25
2022-12-27T03:29:54.683Z,102422.06
2022-12-27T03:32:41.238Z,102432.06
2022-12-27T03:35:19.826Z,102436.97
2022-12-27T03:38:03.935Z,102442.81
2022-12-27T03:41:30.688Z,102442.81
2022-12-27T03:43:57.177Z,102445.34
2022-12-27T03:46:34.025Z,102453.84
2022-12-27T03:49:22.297Z,102452.28
2022-12-27T03:52:03.833Z,102447.25
2022-12-27T03:54:34.838Z,102450.72
2022-12-27T03:57:05.548Z,102448.28
2022-12-27T03:59:32.322Z,102450.09
2022-12-27T04:02:02.272Z,102452.69
2022-12-27T04:04:28.933Z,102447.63
2022-12-27T04:06:55.704Z,102457.75
2022-12-27T04:09:41.209Z,102464.53
2022-12-27T04:12:26.678Z,102462.75
2022-12-27T04:15:11.697Z,102462.69
2022-12-27T04:17:56.680Z,102463.41
2022-12-27T04:20:43.359Z,102454.88
2022-12-27T04:23:28.526Z,102456.50
2022-12-27T04:26:13.375Z,102460.72
2022-12-27T04:28:58.757Z,102461.53
2022-12-27T04:31:43.737Z,102466.56
2022-12-27T04:34:28.849Z,102473.31
2022-12-27T04:36:55.314Z,102473.25
2022-12-27T04:39:21.798Z,102478.22
2022-12-27T04:42:06.615Z,102481.50
2022-12-27T04:44:51.565Z,102487.25
2022-12-27T04:47:40.266Z,102491.41
2022-12-27T04:50:32.772Z,102477.78
2022-12-27T04:53:18.846Z,102476.88
2022-12-27T04:55:45.288Z,102471.69
2022-12-27T04:58:14.737Z,102470.84
2022-12-27T05:00:59.895Z,102471.56
2022-12-27T05:03:29.630Z,102475.75
2022-12-27T05:05:56.187Z,102472.41
2022-12-27T05:08:41.332Z,102471.66
2022-12-27T05:11:27.007Z,102474.16
2022-12-27T05:14:02.550Z,102483.50
2022-12-27T05:16:36.872Z,102483.50
2022-12-27T05:19:05.264Z,102491.09
2022-12-27T05:21:36.753Z,102490.16
2022-12-27T05:24:22.560Z,102498.59
2022-12-27T05:26:49.043Z,102499.41
2022-12-27T05:29:16.709Z,102501.06
2022-12-27T05:31:43.263Z,102497.69
2022-12-27T05:34:09.795Z,102499.38
2022-12-27T05:36:36.299Z,102512.03
2022-12-27T05:39:02.861Z,102516.25
2022-12-27T05:41:29.292Z,102523.06
2022-12-27T05:43:55.725Z,102511.25
2022-12-27T05:46:22.689Z,102519.69
2022-12-27T05:48:52.467Z,102522.25
2022-12-27T05:51:21.150Z,102522.31
2022-12-27T05:53:48.435Z,102519.81
2022-12-27T05:56:17.534Z,102527.41
2022-12-27T05:58:44.603Z,102528.31
2022-12-27T06:01:14.248Z,102525.78
2022-12-27T06:03:40.884Z,102530.84
2022-12-27T06:06:08.215Z,102524.97
2022-12-27T06:08:35.519Z,102529.16
2022-12-27T06:11:04.959Z,102530.81
2022-12-27T06:13:31.856Z,102538.38
2022-12-27T06:16:00.336Z,102542.50
2022-12-27T06:18:28.487Z,102539.94
2022-12-27T06:20:55.101Z,102539.91
2022-12-27T06:23:21.509Z,102546.69
2022-12-27T06:25:47.952Z,102542.44
2022-12-27T06:28:16.942Z,102537.38
2022-12-27T06:30:43.356Z,102541.56
2022-12-27T06:33:09.860Z,102545.72
2022-12-27T06:35:38.643Z,102561.72
2022-12-27T06:38:05.281Z,102555.84
2022-12-27T06:40:31.787Z,102561.72
2022-12-27T06:42:58.259Z,102565.84
2022-12-27T06:45:24.842Z,102570.03
2022-12-27T06:47:51.489Z,102574.28
2022-12-27T06:50:18.034Z,102572.53
2022-12-27T06:52:44.481Z,102569.13
2022-12-27T06:55:11.061Z,102580.06
2022-12-27T06:57:37.522Z,102577.47
2022-12-27T07:00:05.173Z,102580.88
2022-12-27T07:02:31.855Z,102580.88
2022-12-27T07:04:58.463Z,102575.69
2022-12-27T07:07:24.999Z,102577.38
2022-12-27T07:09:52.485Z,102575.63
2022-12-27T07:12:18.968Z,102580.69
2022-12-27T07:14:45.479Z,102584.84
2022-12-27T07:17:12.058Z,102580.56
2022-12-27T07:19:38.916Z,102583.78
2022-12-27T07:22:05.475Z,102584.63
2022-12-27T07:24:33.279Z,102585.41
2022-12-27T07:27:01.777Z,102582.88
2022-12-27T07:29:28.508Z,102591.31
2022-12-27T07:31:55.300Z,102595.53
2022-12-27T07:34:22.193Z,102592.91
2022-12-27T07:36:48.642Z,102593.78
2022-12-27T07:39:15.257Z,102602.19
2022-12-27T07:41:41.813Z,102595.44
2022-12-27T07:44:10.207Z,102601.31
2022-12-27T07:46:36.679Z,102603.84
2022-12-27T07:49:03.270Z,102602.97
2022-12-27T07:51:30.028Z,102609.72
2022-12-27T07:53:59.493Z,102624.94
2022-12-27T07:56:31.715Z,102629.19
2022-12-27T07:59:00.369Z,102629.22
2022-12-27T08:01:29.093Z,102635.16
2022-12-27T08:03:56.251Z,102636.84
2022-12-27T08:06:33.410Z,102642.78
2022-12-27T08:09:05.223Z,102648.75
2022-12-27T08:11:31.810Z,102647.09
2022-12-27T08:13:58.286Z,102650.50
2022-12-27T08:16:26.949Z,102640.50
2022-12-27T08:18:53.863Z,102632.94
2022-12-27T08:21:20.614Z,102644.84
2022-12-27T08:23:49.969Z,102645.69
2022-12-27T08:26:16.390Z,102651.69
2022-12-27T08:28:43.338Z,102646.72
2022-12-27T08:31:11.536Z,102653.59
2022-12-27T08:33:39.160Z,102653.63
2022-12-27T08:38:56.540Z,102658.03
2022-12-27T08:41:23.585Z,102642.06
2022-12-27T08:43:50.442Z,102648.88
2022-12-27T08:46:18.914Z,102653.25
2022-12-27T08:48:49.116Z,102648.28
2022-12-27T08:51:24.825Z,102640.78
2022-12-27T08:53:58.125Z,102644.31
2022-12-27T08:56:24.682Z,102648.63
2022-12-27T08:58:51.340Z,102644.56
2022-12-27T09:01:18.375Z,102644.75
2022-12-27T09:03:45.006Z,102636.44
2022-12-27T09:06:15.659Z,102643.22
2022-12-27T09:08:43.992Z,102639.97
2022-12-27T09:11:21.246Z,102649.31
2022-12-27T09:13:48.177Z,102654.63
2022-12-27T09:16:16.982Z,102653.22
2022-12-27T09:18:44.079Z,102656.06
2022-12-27T09:21:13.013Z,102666.44
2022-12-27T09:23:40.902Z,102663.16
2022-12-27T09:26:14.754Z,102663.25
2022-12-27T09:28:42.183Z,102658.25
2022-12-27T09:31:11.304Z,102652.41
2022-12-27T09:33:38.314Z,102661.00
2022-12-27T09:36:11.081Z,102653.63
2022-12-27T09:38:38.099Z,102663.06
2022-12-27T09:41:07.173Z,102670.63
2022-12-27T09:43:54.246Z,102663.88
2022-12-27T09:46:28.885Z,102670.72
2022-12-27T09:48:57.478Z,102667.41
2022-12-27T09:51:43.333Z,102674.22
2022-12-27T09:54:27.004Z,102668.38
2022-12-27T09:57:18.854Z,102677.75
2022-12-27T09:59:47.650Z,102667.59
2022-12-27T10:02:24.567Z,102665.97
2022-12-27T10:05:19.207Z,102664.34
2022-12-27T10:07:47.035Z,102662.81
2022-12-27T10:10:38.328Z,102669.56
2022-12-27T10:13:25.414Z,102667.81
2022-12-27T10:16:14.007Z,102673.13
2022-12-27T10:18:52.673Z,102680.00
2022-12-27T10:21:28.112Z,102670.84
2022-12-27T10:24:08.440Z,102676.66
2022-12-27T10:26:34.925Z,102688.41
2022-12-27T10:29:10.525Z,102687.59
2022-12-27T10:31:43.050Z,102691.88
2022-12-27T10:34:13.947Z,102687.81
2022-12-27T10:36:42.122Z,102684.72
2022-12-27T10:39:21.234Z,102684.09
2022-12-27T10:42:05.031Z,102672.44
2022-12-27T10:44:31.519Z,102678.28
2022-12-27T10:46:59.217Z,102678.16
2022-12-27T10:49:34.613Z,102678.16
2022-12-27T10:52:15.972Z,102668.91
2022-12-27T10:54:53.910Z,102670.63
2022-12-27T10:57:31.216Z,102680.78
2022-12-27T11:00:18.387Z,102675.78
2022-12-27T11:02:52.779Z,102677.50
2022-12-27T11:05:27.820Z,102683.44
2022-12-27T11:07:55.661Z,102680.91
2022-12-27T11:10:31.416Z,102678.44
2022-12-27T11:12:59.353Z,102674.34
2022-12-27T11:15:27.305Z,102666.00
2022-12-27T11:17:56.434Z,102659.34
2022-12-27T11:20:32.502Z,102654.50
2022-12-27T11:23:10.082Z,102656.47
2022-12-27T11:26:06.226Z,102641.56
2022-12-27T11:28:44.391Z,102641.78
2022-12-27T11:31:19.429Z,102648.00
2022-12-27T11:33:54.205Z,102641.47
2022-12-27T11:36:40.701Z,102642.56
2022-12-27T11:39:08.299Z,102650.47
2022-12-27T11:41:46.690Z,102647.97
2022-12-27T11:44:24.274Z,102637.78
2022-12-27T11:46:59.244Z,102643.91
2022-12-27T11:49:36.216Z,102639.69
2022-12-27T11:52:25.242Z,102632.03
2022-12-27T11:55:27.329Z,102626.03
2022-12-27T11:58:14.311Z,102635.22
2022-12-27T12:01:22.959Z,102642.88
2022-12-27T12:04:14.276Z,102641.25
2022-12-27T12:07:20.254Z,102637.88
2022-12-27T12:09:58.900Z,102632.00
2022-12-27T12:12:28.329Z,102637.97
2022-12-27T12:15:25.941Z,102621.03
2022-12-27T12:17:58.375Z,102621.84
2022-12-27T12:21:00.137Z,102617.59
2022-12-27T12:23:35.387Z,102605.75
2022-12-27T12:26:22.421Z,102592.19
2022-12-27T12:28:59.541Z,102601.53
2022-12-27T12:31:39.827Z,102592.31
2022-12-27T12:34:06.252Z,102594.13
2022-12-27T12:37:09.007Z,102595.94
2022-12-27T12:39:53.710Z,102587.59
2022-12-27T12:42:28.622Z,102591.13
2022-12-27T12:45:26.785Z,102576.81
2022-12-27T12:47:53.232Z,102576.84
2022-12-27T12:50:43.165Z,102566.63
2022-12-27T12:53:24.859Z,102569.22
2022-12-27T12:56:15.498Z,102564.09
2022-12-27T12:58:49.406Z,102560.63
2022-12-27T13:01:34.741Z,102550.38
2022-12-27T13:04:07.546Z,102546.09
2022-12-27T13:06:44.828Z,102536.78
2022-12-27T13:09:14.148Z,102536.81
2022-12-27T13:11:48.641Z,102515.59
2022-12-27T13:14:39.621Z,102522.44
2022-12-27T13:17:29.101Z,102513.06
2022-12-27T13:20:20.957Z,102509.63
2022-12-27T13:23:09.124Z,102517.22
2022-12-27T13:25:50.168Z,102518.91
2022-12-27T13:28:39.250Z,102506.16
2022-12-27T13:31:43.245Z,102504.44
2022-12-27T13:34:21.822Z,102505.31
2022-12-27T13:37:30.299Z,102500.22
2022-12-27T13:40:09.073Z,102499.44
2022-12-27T13:43:11.136Z,102499.47
2022-12-27T13:46:42.105Z,102488.53
2022-12-27T13:50:10.643Z,102481.72
2022-12-27T13:53:07.956Z,102482.66
2022-12-27T13:58:51.391Z,102473.34
2022-12-27T14:01:30.241Z,102459.75
2022-12-27T14:04:42.149Z,102463.13
2022-12-27T14:07:49.717Z,102451.22
2022-12-27T14:10:36.207Z,102448.63
2022-12-27T14:13:07.613Z,102446.88
2022-12-27T14:16:03.922Z,102449.34
2022-12-27T14:18:54.815Z,102441.69
2022-12-27T14:21:33.115Z,102441.59
2022-12-27T14:24:41.316Z,102442.47
2022-12-27T14:27:38.912Z,102447.50
2022-12-27T14:30:33.379Z,102444.91
2022-12-27T14:33:35.241Z,102449.09
2022-12-27T14:36:35.707Z,102442.28
2022-12-27T14:39:45.566Z,102434.63
2022-12-27T14:42:25.196Z,102422.72
2022-12-27T14:45:19.377Z,102428.63
2022-12-27T14:48:23.311Z,102429.44
2022-12-27T14:51:50.492Z,102435.41
2022-12-27T14:54:28.508Z,102430.25
2022-12-27T14:57:07.151Z,102435.34
2022-12-27T14:59:54.951Z,102438.72
2022-12-27T15:02:59.094Z,102420.88
2022-12-27T15:05:31.756Z,102411.53
2022-12-27T15:08:19.580Z,102414.88
2022-12-27T15:11:04.256Z,102403.84
2022-12-27T15:14:03.589Z,102418.22
2022-12-27T15:16:45.745Z,102419.03
2022-12-27T15:19:14.736Z,102419.00
2022-12-27T15:21:50.752Z,102417.25
2022-12-27T15:24:23.215Z,102418.91
2022-12-27T15:26:58.533Z,102414.66
2022-12-27T15:29:31.887Z,102412.94
2022-12-27T15:32:39.743Z,102420.50
2022-12-27T15:35:17.921Z,102422.19
2022-12-27T15:37:47.483Z,102427.28
2022-12-27T15:40:32.192Z,102423.84
2022-12-27T15:43:24.953Z,102428.91
2022-12-27T15:46:19.197Z,102425.53
2022-12-27T15:49:04.412Z,102422.97
2022-12-27T15:52:01.176Z,102427.19
2022-12-27T15:54:45.504Z,102404.28
2022-12-27T15:57:52.573Z,102406.00
2022-12-27T16:00:34.024Z,102389.03
2022-12-27T16:03:29.726Z,102403.47
2022-12-27T16:05:59.728Z,102406.00
2022-12-27T16:08:28.507Z,102399.19
2022-12-27T16:10:56.133Z,102397.50
2022-12-27T16:13:43.296Z,102398.38
2022-12-27T16:16:26.713Z,102404.28
2022-12-27T16:19:14.514Z,102399.22
2022-12-27T16:21:46.442Z,102403.47
2022-12-27T16:24:23.339Z,102397.53
2022-12-27T16:27:21.121Z,102393.31
2022-12-27T16:29:47.656Z,102395.03
2022-12-27T16:32:23.599Z,102396.72
2022-12-27T16:34:55.286Z,102396.75
2022-12-27T16:37:30.349Z,102391.69
2022-12-27T16:40:11.270Z,102397.63
2022-12-27T16:43:09.505Z,102390.00
2022-12-27T16:45:39.294Z,102390.00
2022-12-27T16:48:20.480Z,102395.09
2022-12-27T16:51:13.708Z,102393.44
2022-12-27T16:54:01.826Z,102399.41
2022-12-27T16:56:32.280Z,102397.72
2022-12-27T16:58:58.850Z,102385.84
2022-12-27T17:01:25.348Z,102379.94
2022-12-27T17:03:53.697Z,102369.78
2022-12-27T17:06:32.008Z,102369.81
2022-12-27T17:09:08.984Z,102354.56
2022-12-27T17:11:47.565Z,102351.16
2022-12-27T17:14:29.873Z,102348.63
2022-12-27T17:17:04.133Z,102338.44
2022-12-27T17:19:47.478Z,102334.16
2022-12-27T17:22:16.659Z,102330.75
2022-12-27T17:24:45.545Z,102329.91
2022-12-27T17:27:17.519Z,102323.94
2022-12-27T17:30:23.033Z,102317.16
2022-12-27T17:33:02.265Z,102308.69
2022-12-27T17:35:35.797Z,102318.84
2022-12-27T17:38:10.996Z,102316.31
2022-12-27T17:40:50.044Z,102304.44
2022-12-27T17:43:41.424Z,102300.25
2022-12-27T17:46:18.868Z,102296.06
2022-12-27T17:48:46.062Z,102290.97
2022-12-27T17:51:17.634Z,102302.00
2022-12-27T17:54:09.872Z,102297.81
2022-12-27T17:57:22.279Z,102303.72
2022-12-27T17:59:50.621Z,102297.81
2022-12-27T18:02:32.891Z,102286.72
2022-12-27T18:05:04.141Z,102281.63
2022-12-27T18:07:33.270Z,102286.63
2022-12-27T18:10:07.768Z,102281.50
2022-12-27T18:12:39.930Z,102279.78
2022-12-27T18:15:12.381Z,102281.44
2022-12-27T18:17:42.989Z,102278.91
2022-12-27T18:20:30.723Z,102272.97
2022-12-27T18:23:03.013Z,102270.41
2022-12-27T18:25:31.367Z,102269.53
2022-12-27T18:28:04.099Z,102259.34
2022-12-27T18:30:39.602Z,102259.28
2022-12-27T18:33:06.959Z,102267.66
2022-12-27T18:35:34.738Z,102250.69
2022-12-27T18:38:06.560Z,102247.31
2022-12-27T18:40:34.823Z,102248.97
2022-12-27T18:43:01.419Z,102243.88
2022-12-27T18:45:31.204Z,102232.84
2022-12-27T18:48:00.779Z,102232.84
2022-12-27T18:50:32.285Z,102225.22
2022-12-27T18:53:03.384Z,102216.69
2022-12-27T18:55:31.470Z,102211.56
2022-12-27T18:58:06.842Z,102217.47
2022-12-27T19:00:48.460Z,102196.25
2022-12-27T19:03:18.153Z,102200.44
2022-12-27T19:06:05.106Z,102203.81
2022-12-27T19:08:44.480Z,102201.22
2022-12-27T19:11:21.560Z,102202.91
2022-12-27T19:13:51.838Z,102198.66
2022-12-27T19:16:38.687Z,102196.09
2022-12-27T19:19:17.463Z,102194.41
2022-12-27T19:21:44.340Z,102196.09
2022-12-27T19:24:27.447Z,102186.72
2022-12-27T19:26:55.584Z,102183.28
2022-12-27T19:29:30.243Z,102179.84
2022-12-27T19:32:01.506Z,102170.47
2022-12-27T19:34:47.548Z,102170.47
2022-12-27T19:37:14.497Z,102176.38
2022-12-27T19:39:41.692Z,102167.09
2022-12-27T19:42:18.635Z,102161.16
2022-12-27T19:44:45.398Z,102156.06
2022-12-27T19:47:14.300Z,102152.66
2022-12-27T19:49:43.090Z,102150.13
2022-12-27T19:52:17.994Z,102150.13
2022-12-27T19:54:45.424Z,102145.06
2022-12-27T19:57:12.704Z,102141.69
2022-12-27T19:59:43.454Z,102136.63
2022-12-27T20:02:10.476Z,102142.53
2022-12-27T20:04:37.330Z,102135.00
2022-12-27T20:07:04.292Z,102124.00
2022-12-27T20:09:30.911Z,102116.41
2022-12-27T20:11:57.500Z,102118.16
2022-12-27T20:14:24.177Z,102111.44
2022-12-27T20:16:50.871Z,102108.00
2022-12-27T20:19:19.972Z,102103.75
2022-12-27T20:21:46.739Z,102103.75
2022-12-27T20:24:13.986Z,102108.00
2022-12-27T20:26:41.471Z,102099.53
2022-12-27T20:29:09.665Z,102092.75
2022-12-27T20:31:44.669Z,102091.94
2022-12-27T20:34:12.125Z,102089.38
2022-12-27T20:36:38.741Z,102079.22
2022-12-27T20:39:07.180Z,102081.75
2022-12-27T20:41:33.866Z,102075.88
2022-12-27T20:44:00.509Z,102075.88
2022-12-27T20:46:27.116Z,102079.25
2022-12-27T20:49:07.082Z,102067.41
2022-12-27T20:51:34.115Z,102072.50
2022-12-27T20:54:02.899Z,102068.25
2022-12-27T20:56:29.783Z,102063.19
2022-12-27T20:58:56.507Z,102074.25
2022-12-27T21:01:25.578Z,102064.91
2022-12-27T21:03:54.131Z,102053.91
2022-12-27T21:06:22.932Z,102046.28
2022-12-27T21:08:56.149Z,102051.38
2022-12-27T21:11:27.396Z,102042.09
2022-12-27T21:13:54.211Z,102043.75
2022-12-27T21:16:24.088Z,102045.47
2022-12-27T21:18:50.756Z,102028.53
2022-12-27T21:21:27.414Z,102029.38
2022-12-27T21:23:54.833Z,102030.22
2022-12-27T21:26:24.884Z,102019.22
2022-12-27T21:28:51.761Z,102026.84
2022-12-27T21:31:18.692Z,102029.41
2022-12-27T21:33:45.772Z,102023.47
2022-12-27T21:36:15.619Z,102011.59
2022-12-27T21:38:42.420Z,102011.59
2022-12-27T21:41:14.305Z,102007.34
2022-12-27T21:43:41.160Z,101995.47
2022-12-27T21:46:15.707Z,102004.81
2022-12-27T21:48:42.974Z,101998.88
2022-12-27T21:51:14.979Z,101993.81
2022-12-27T21:53:42.053Z,101992.94
2022-12-27T21:56:10.480Z,101981.94
2022-12-27T21:58:38.322Z,101981.09
2022-12-27T22:01:08.915Z,101972.63
2022-12-27T22:03:38.165Z,101965.00
2022-12-27T22:06:21.640Z,101975.16
2022-12-27T22:08:50.954Z,101970.06
2022-12-27T22:11:19.135Z,101958.22
2022-12-27T22:13:45.712Z,101950.63
2022-12-27T22:16:15.009Z,101950.63
2022-12-27T22:18:42.848Z,101946.38
2022-12-27T22:21:11.071Z,101939.63
2022-12-27T22:23:39.913Z,101937.91
2022-12-27T22:26:11.099Z,101942.16
2022-12-27T22:28:38.153Z,101945.53
2022-12-27T22:31:07.278Z,101931.13
2022-12-27T22:33:35.513Z,101924.31
2022-12-27T22:36:06.810Z,101920.94
2022-12-27T22:38:33.429Z,101918.38
2022-12-27T22:41:17.250Z,101914.97
2022-12-27T22:43:58.385Z,101921.75
2022-12-27T22:46:25.638Z,101917.50
2022-12-27T22:48:58.277Z,101918.34
2022-12-27T22:51:33.265Z,101900.53
2022-12-27T22:54:01.357Z,101900.50
2022-12-27T22:56:33.878Z,101897.94
2022-12-27T22:59:01.543Z,101898.78
2022-12-27T23:01:31.668Z,101889.44
2022-12-27T23:04:00.615Z,101875.88
2022-12-27T23:06:28.323Z,101859.75
2022-12-27T23:08:55.430Z,101847.88
2022-12-27T23:11:27.721Z,101852.94
2022-12-27T23:14:02.862Z,101847.88
2022-12-27T23:16:36.614Z,101833.47
2022-12-27T23:19:03.875Z,101828.38
2022-12-27T23:21:30.421Z,101819.91
2022-12-27T23:23:56.892Z,101810.59
2022-12-27T23:26:24.142Z,101830.06
2022-12-27T23:28:52.195Z,101825.84
2022-12-27T23:31:21.300Z,101810.59
2022-12-27T23:33:48.189Z,101802.09
2022-12-27T23:36:17.472Z,101810.59
2022-12-27T23:38:44.490Z,101800.44
2022-12-27T23:41:18.031Z,101797.88
2022-12-27T23:43:54.560Z,101797.03
2022-12-27T23:46:23.892Z,101800.44
2022-12-27T23:48:51.359Z,101786.84
2022-12-27T23:51:18.220Z,101788.56
2022-12-27T23:53:44.848Z,101767.41
2022-12-27T23:56:21.096Z,101755.53
2022-12-27T23:58:48.696Z,101750.47
